Kurume, Japan
Current Conditions -  °F | °C
As of 4:00 PM on Thursday 23 Oct 2014 (Local Time) from RJFS Reporting Station
Few Clouds Few Clouds  
Wind Chill: 70°   Ceiling: Unl
Heat Index: 70°   Visibility: 6mi
Dew Point: 48°   Wind: 12mph
Humidity: 46%   Direction: 30°NNE
Pressure: 30"   Gusts: NA
Location:  33.31°N, 130.51°E
Report Text: RJFS 230700Z 03010KT 9999 FEW040 21/09 Q1016
Loading
Personal Weather Stations






























Interactive Weather Map
Tropical Storm Tracking
New forecast layout! Learn more

10-Day Weather Forecast

Advertisements
Track Severe Weather on mobile